Time;durP1;ratioP1;P1;durP2;ratioP2;P2;SDS_P1;SDS_P2;PMS_P1;PMS_P2;Temp;Humidity;BMP_temperature;BMP_pressure;BME280_temperature;BME280_humidity;BME280_pressure;Samples;Min_cycle;Max_cycle;Signal;HPM_P1;HPM_P2
2023/05/01 00:01:11;;;;;;;7.53;4.57;;;;;;;8.46;66.54;101616.25;4906501;29;19965;-79
2023/05/01 00:03:36;;;;;;;;;;;;;;;8.47;66.72;101612.56;4891573;29;20111;-79
2023/05/01 00:06:03;;;;;;;5.30;4.00;;;;;;;8.49;66.20;101607.06;4898547;29;19971;-80
2023/05/01 00:08:34;;;;;;;6.05;4.25;;;;;;;8.50;66.30;101600.69;4902994;29;20056;-81
2023/05/01 00:11:03;;;;;;;6.85;4.25;;;;;;;8.47;66.24;101601.00;4900175;29;20048;-80
2023/05/01 00:13:29;;;;;;;10.07;4.80;;;;;;;8.48;65.93;101594.63;4887504;29;20047;-79
2023/05/01 00:15:56;;;;;;;8.63;5.22;;;;;;;8.47;65.70;101591.09;4898768;29;20047;-80
2023/05/01 00:18:21;;;;;;;7.63;4.43;;;;;;;8.43;66.11;101591.59;4905625;29;20047;-79
2023/05/01 00:20:46;;;;;;;;;;;;;;;8.37;66.05;101598.47;4866744;29;20040;-79
2023/05/01 00:23:12;;;;;;;6.53;4.00;;;;;;;8.39;65.73;101584.88;4882992;29;20386;-79
2023/05/01 00:25:38;;;;;;;;;;;;;;;8.38;65.54;101581.38;4877047;29;20044;-79
2023/05/01 00:28:04;;;;;;;7.90;4.43;;;;;;;8.33;66.04;101581.84;4844106;29;19930;-80
2023/05/01 00:30:31;;;;;;;10.18;4.60;;;;;;;8.34;66.41;101578.16;4902142;29;20159;-79
2023/05/01 00:33:00;;;;;;;7.95;4.60;;;;;;;8.30;67.07;101571.44;4908993;29;20044;-79
2023/05/01 00:35:29;;;;;;;6.18;4.57;;;;;;;8.28;66.46;101573.47;4904222;29;20044;-80
2023/05/01 00:37:54;;;;;;;10.55;4.70;;;;;;;8.28;66.21;101570.78;4906231;29;20087;-80
2023/05/01 00:40:26;;;;;;;;;;;;;;;8.27;66.80;101563.72;4908247;29;20056;-79
2023/05/01 00:42:52;;;;;;;5.13;4.00;;;;;;;8.26;66.29;101556.69;4899574;29;19935;-80
2023/05/01 00:45:17;;;;;;;;;;;;;;;8.24;66.19;101558.69;4907171;29;20070;-80
2023/05/01 00:47:42;;;;;;;7.60;4.40;;;;;;;8.26;66.50;101547.78;4901142;29;20627;-80
2023/05/01 00:50:08;;;;;;;;;;;;;;;8.27;66.28;101546.78;4890204;29;20547;-80
2023/05/01 00:52:33;;;;;;;7.40;4.40;;;;;;;8.29;65.39;101534.91;4882726;29;19927;-80
2023/05/01 00:54:58;;;;;;;;;;;;;;;8.27;66.01;101536.06;4882355;29;20044;-79
2023/05/01 00:57:24;;;;;;;7.20;4.32;;;;;;;8.26;66.47;101532.53;4897718;29;19989;-79
2023/05/01 00:59:49;;;;;;;;;;;;;;;8.24;66.14;101526.50;4897465;29;20514;-79
2023/05/01 01:02:15;;;;;;;6.87;4.73;;;;;;;8.24;65.80;101529.19;4877217;29;19973;-80
2023/05/01 01:04:43;;;;;;;;;;;;;;;8.23;66.50;101529.34;4873962;29;20052;-78
2023/05/01 01:07:14;;;;;;;7.28;4.40;;;;;;;8.25;65.52;101528.19;4897578;29;19923;-78
2023/05/01 01:10:05;;;;;;;9.88;4.28;;;;;;;8.25;66.04;101517.44;4906901;29;20143;-77
2023/05/01 01:12:54;;;;;;;8.25;4.22;;;;;;;8.25;66.02;101522.81;4908403;29;20048;-79
2023/05/01 01:15:29;;;;;;;6.70;4.45;;;;;;;8.25;65.18;101511.22;4908186;29;20044;-79
2023/05/01 01:18:15;;;;;;;7.20;4.53;;;;;;;8.25;65.78;101509.41;4882255;29;20080;-77
2023/05/01 01:20:49;;;;;;;8.40;4.75;;;;;;;8.27;65.59;101509.22;4872265;29;20071;-77
2023/05/01 01:23:40;;;;;;;6.40;4.60;;;;;;;8.25;64.16;101506.72;4874067;29;20048;-78
2023/05/01 01:26:22;;;;;;;7.40;4.50;;;;;;;8.26;64.75;101503.03;4886791;29;20112;-78
2023/05/01 01:29:08;;;;;;;7.90;4.50;;;;;;;8.21;65.35;101500.00;4876816;29;20121;-78
2023/05/01 01:32:07;;;;;;;6.47;4.33;;;;;;;8.16;64.97;101496.97;4864041;29;20096;-78
2023/05/01 01:34:39;;;;;;;5.47;4.30;;;;;;;8.17;65.87;101493.28;4886705;29;20051;-78
2023/05/01 01:37:11;;;;;;;10.05;4.90;;;;;;;8.15;64.95;101495.28;4873695;29;20048;-78
2023/05/01 01:39:37;;;;;;;8.70;4.43;;;;;;;8.15;64.73;101496.16;4878686;29;20052;-78
2023/05/01 01:42:07;;;;;;;12.35;5.03;;;;;;;8.15;65.44;101489.94;4869174;29;20052;-78
2023/05/01 01:44:40;;;;;;;9.63;5.15;;;;;;;8.12;64.88;101493.78;4890339;29;20045;-78
2023/05/01 01:47:09;;;;;;;9.95;5.28;;;;;;;8.12;65.10;101492.97;4857579;29;20090;-78
2023/05/01 01:49:36;;;;;;;11.18;5.20;;;;;;;8.09;65.38;101487.94;4872427;29;20060;-78
2023/05/01 01:52:02;;;;;;;8.48;4.80;;;;;;;8.11;64.86;101480.56;4867882;29;20113;-78
2023/05/01 01:54:30;;;;;;;10.18;5.22;;;;;;;8.08;65.01;101476.34;4875919;29;20052;-78
2023/05/01 01:56:57;;;;;;;9.10;4.57;;;;;;;8.06;64.78;101469.47;4876995;29;20052;-78
2023/05/01 01:59:23;;;;;;;7.68;4.35;;;;;;;8.04;64.82;101477.66;4873050;29;20041;-79
2023/05/01 02:01:48;;;;;;;;;;;;;;;7.97;65.62;101474.00;4868125;29;20071;-79
2023/05/01 02:04:13;;;;;;;9.50;4.70;;;;;;;7.94;66.48;101471.63;4874395;29;20356;-79
2023/05/01 02:06:38;;;;;;;;;;;;;;;7.88;65.63;101465.09;4847628;29;20045;-79
2023/05/01 02:09:05;;;;;;;7.03;3.97;;;;;;;7.85;65.65;101458.19;4889603;29;19924;-78
2023/05/01 02:11:30;;;;;;;6.57;4.40;;;;;;;7.87;66.36;101455.38;4870411;29;20462;-79
2023/05/01 02:13:57;;;;;;;;;;;;;;;7.84;66.50;101455.69;4889302;29;20041;-79
2023/05/01 02:16:26;;;;;;;7.68;4.93;;;;;;;7.81;66.37;101456.00;4875062;29;19946;-79
2023/05/01 02:18:51;;;;;;;7.07;4.72;;;;;;;7.79;66.04;101453.50;4855209;29;20057;-79
2023/05/01 02:21:17;;;;;;;;;;;;;;;7.71;66.35;101451.66;4860538;29;20515;-79
2023/05/01 02:23:42;;;;;;;8.70;4.50;;;;;;;7.72;66.08;101439.94;4861368;29;20014;-78
2023/05/01 02:26:07;;;;;;;;;;;;;;;7.67;66.06;101447.59;4852050;29;20045;-79
2023/05/01 02:28:33;;;;;;;5.00;4.03;;;;;;;7.62;66.27;101436.53;4865940;29;20327;-79
2023/05/01 02:30:58;;;;;;;;;;;;;;;7.58;65.92;101444.06;4862120;29;20393;-79
2023/05/01 02:33:24;;;;;;;10.37;5.00;;;;;;;7.57;66.23;101428.16;4872329;29;20050;-79
2023/05/01 02:35:49;;;;;;;;;;;;;;;7.57;65.95;101428.16;4870425;29;20629;-79
2023/05/01 02:38:15;;;;;;;7.03;4.40;;;;;;;7.53;66.11;101421.44;4889538;29;19923;-79
2023/05/01 02:40:42;;;;;;;;;;;;;;;7.54;65.66;101423.13;4888248;29;20063;-80
2023/05/01 02:43:08;;;;;;;7.72;4.13;;;;;;;7.51;65.90;101428.81;4874458;29;19923;-79
2023/05/01 02:45:35;;;;;;;7.88;4.53;;;;;;;7.46;66.24;101415.91;4854395;29;20052;-79
2023/05/01 02:48:01;;;;;;;7.03;4.53;;;;;;;7.44;66.58;101424.09;4851846;29;20048;-79
2023/05/01 02:50:26;;;;;;;;;;;;;;;7.38;66.96;101419.38;4892683;29;20048;-79
2023/05/01 02:52:51;;;;;;;8.53;4.70;;;;;;;7.35;66.85;101410.81;4889089;29;19923;-79
2023/05/01 02:55:17;;;;;;;;;;;;;;;7.31;66.74;101406.81;4838811;29;20061;-79
2023/05/01 02:57:42;;;;;;;8.73;4.35;;;;;;;7.28;67.56;101405.28;4883694;29;20095;-79
2023/05/01 03:00:12;;;;;;;;;;;;;;;7.28;67.18;101410.63;4884671;29;20037;-79
2023/05/01 03:02:38;;;;;;;10.45;4.60;;;;;;;7.28;66.26;101407.94;4870481;29;19923;-79
2023/05/01 03:05:03;;;;;;;;;;;;;;;7.22;67.38;101397.91;4889972;29;20051;-79
2023/05/01 03:07:33;;;;;;;12.32;5.15;;;;;;;7.21;66.93;101396.22;4888246;29;19935;-79
2023/05/01 03:10:01;;;;;;;9.13;4.55;;;;;;;7.23;66.98;101405.75;4888556;29;20187;-79
2023/05/01 03:12:26;;;;;;;7.75;5.05;;;;;;;7.24;66.58;101393.19;4879448;29;20111;-79
2023/05/01 03:14:52;;;;;;;;;;;;;;;7.19;67.48;101388.34;4867130;29;20052;-79
2023/05/01 03:17:18;;;;;;;6.50;4.35;;;;;;;7.18;66.94;101389.34;4878105;29;19932;-79
2023/05/01 03:19:43;;;;;;;;;;;;;;;7.16;67.35;101385.97;4872024;29;20045;-79
2023/05/01 03:22:10;;;;;;;8.40;4.83;;;;;;;7.16;67.28;101379.78;4876562;29;19919;-78
2023/05/01 03:24:35;;;;;;;7.93;5.28;;;;;;;7.15;66.98;101376.25;4879434;29;20321;-78
2023/05/01 03:27:01;;;;;;;;;;;;;;;7.08;66.96;101377.94;4908062;29;20052;-78
2023/05/01 03:29:26;;;;;;;8.32;4.95;;;;;;;7.04;67.29;101369.38;4904651;29;19923;-78
2023/05/01 03:31:52;;;;;;;;;;;;;;;6.99;68.41;101369.03;4900596;29;20081;-78
2023/05/01 03:34:17;;;;;;;9.00;5.10;;;;;;;6.96;68.70;101374.69;4904431;29;19923;-78
2023/05/01 03:36:42;;;;;;;;;;;;;;;6.96;69.60;101367.50;4895558;29;20044;-78
2023/05/01 03:39:08;;;;;;;8.40;5.00;;;;;;;6.96;68.98;101362.16;4906001;29;19923;-79
2023/05/01 03:41:33;;;;;;;;;;;;;;;7.01;69.52;101369.69;4892392;29;20182;-79
2023/05/01 03:43:58;;;;;;;10.10;5.03;;;;;;;7.03;68.96;101362.34;4913042;29;20360;-78
2023/05/01 03:46:24;;;;;;;;;;;;;;;7.03;68.79;101359.66;4907422;29;20404;-79
2023/05/01 03:48:49;;;;;;;6.37;4.97;;;;;;;7.04;68.20;101356.00;4897808;29;20043;-79
2023/05/01 03:51:16;;;;;;;;;;;;;;;7.08;68.40;101348.47;4897856;29;20060;-78
2023/05/01 03:53:41;;;;;;;8.05;4.80;;;;;;;7.12;67.90;101350.66;4906243;29;19966;-79
2023/05/01 03:56:08;;;;;;;;;;;;;;;7.17;67.95;101352.84;4865515;29;20048;-79
2023/05/01 03:58:33;;;;;;;9.77;5.22;;;;;;;7.21;67.21;101351.53;4901398;29;19935;-79
2023/05/01 04:00:59;;;;;;;;;;;;;;;7.23;67.36;101346.84;4880616;29;20040;-79
2023/05/01 04:03:25;;;;;;;7.85;4.90;;;;;;;7.26;67.79;101346.53;4896967;29;20391;-78
2023/05/01 04:05:52;;;;;;;;;;;;;;;7.27;67.62;101344.69;4883925;29;20040;-79
2023/05/01 04:08:17;;;;;;;9.27;5.18;;;;;;;7.28;67.75;101343.69;4907772;29;19922;-78
2023/05/01 04:10:43;;;;;;;7.78;4.75;;;;;;;7.31;67.52;101348.72;4896753;29;20130;-79
2023/05/01 04:13:09;;;;;;;;;;;;;;;7.32;66.58;101346.88;4900266;29;20067;-79
2023/05/01 04:15:35;;;;;;;8.13;4.88;;;;;;;7.34;66.67;101347.53;4907555;29;19955;-80
2023/05/01 04:18:00;;;;;;;;;;;;;;;7.33;65.59;101346.72;4910141;29;20083;-77
2023/05/01 04:20:25;;;;;;;7.47;4.67;;;;;;;7.35;65.60;101344.72;4908380;29;19931;-88
2023/05/01 04:22:51;;;;;;;;;;;;;;;7.38;65.82;101338.19;4906531;29;20056;-82
2023/05/01 04:25:16;;;;;;;9.83;4.67;;;;;;;7.40;65.17;101341.53;4905010;29;20017;-82
2023/05/01 04:27:44;;;;;;;;;;;;;;;7.40;64.67;101336.19;4908364;29;20048;-84
2023/05/01 04:30:10;;;;;;;10.57;5.75;;;;;;;7.43;65.35;101335.84;4897420;29;20387;-86
2023/05/01 04:32:35;;;;;;;;;;;;;;;7.43;63.69;101338.53;4904202;29;20040;-85
2023/05/01 04:35:00;;;;;;;7.20;4.90;;;;;;;7.46;64.17;101334.69;4904840;29;20353;-85
2023/05/01 04:37:27;;;;;;;;;;;;;;;7.48;62.61;101338.03;4895088;29;20456;-85
2023/05/01 04:39:54;;;;;;;7.82;4.53;;;;;;;7.54;62.62;101337.38;4895949;29;19987;-86
2023/05/01 04:42:19;;;;;;;8.82;5.28;;;;;;;7.56;62.30;101332.72;4908004;29;20393;-86
2023/05/01 04:44:46;;;;;;;;;;;;;;;7.56;62.27;101338.06;4908667;29;20054;-86
2023/05/01 04:47:11;;;;;;;9.90;4.80;;;;;;;7.59;62.72;101335.03;4905902;29;19931;-87
2023/05/01 04:49:36;;;;;;;;;;;;;;;7.58;61.94;101336.06;4909697;29;20105;-87
2023/05/01 04:52:02;;;;;;;8.20;4.43;;;;;;;7.61;62.22;101338.38;4893335;29;19934;-85
2023/05/01 04:54:27;;;;;;;;;;;;;;;7.61;62.15;101338.38;4905554;29;20799;-86
2023/05/01 04:56:53;;;;;;;9.93;4.60;;;;;;;7.63;61.69;101339.06;4909827;29;19932;-85
2023/05/01 04:59:18;;;;;;;;;;;;;;;7.62;60.93;101340.06;4893152;29;20287;-84
2023/05/01 05:01:45;;;;;;;7.80;4.50;;;;;;;7.63;61.29;101344.41;4904362;29;19975;-85
2023/05/01 05:04:19;;;;;;;5.70;3.92;;;;;;;7.77;61.41;101339.41;4884923;29;20277;-86
2023/05/01 05:06:47;;;;;;;13.02;5.07;;;;;;;7.77;61.68;101342.09;4901830;29;20808;-84
2023/05/01 05:09:13;;;;;;;6.82;4.93;;;;;;;7.87;60.47;101340.09;4890256;29;20409;-84
2023/05/01 05:11:38;;;;;;;;;;;;;;;8.08;60.56;101338.75;4896887;29;20055;-86
2023/05/01 05:14:04;;;;;;;8.90;4.50;;;;;;;8.32;60.10;101341.41;4908608;29;19951;-87
2023/05/01 05:16:29;;;;;;;;;;;;;;;8.38;59.88;101349.78;4891850;29;20050;-87
2023/05/01 05:18:56;;;;;;;6.97;4.63;;;;;;;8.63;59.02;101340.72;4910184;29;19941;-85
2023/05/01 05:21:21;;;;;;;7.78;4.95;;;;;;;8.87;58.59;101336.25;4907329;29;20285;-85
2023/05/01 05:23:46;;;;;;;;;;;;;;;8.97;58.46;101338.75;4914980;29;20526;-85
2023/05/01 05:26:12;;;;;;;9.57;4.90;;;;;;;9.05;58.35;101329.81;4910928;29;19927;-85
2023/05/01 05:28:37;;;;;;;;;;;;;;;9.01;57.00;101336.53;4910866;29;20068;-83
2023/05/01 05:31:02;;;;;;;7.17;4.53;;;;;;;9.02;57.38;101332.84;4908722;29;20009;-82
2023/05/01 05:33:28;;;;;;;7.03;4.22;;;;;;;9.06;56.72;101326.97;4905449;29;20060;-82
2023/05/01 05:35:54;;;;;;;;;;;;;;;9.05;57.00;101330.66;4905477;29;20046;-81
2023/05/01 05:38:19;;;;;;;6.37;4.30;;;;;;;9.10;56.89;101322.91;4909615;29;19923;-82
2023/05/01 05:40:44;;;;;;;8.10;4.63;;;;;;;9.17;57.14;101330.25;4896545;29;20048;-81
2023/05/01 05:43:10;;;;;;;7.25;4.40;;;;;;;9.25;56.80;101336.44;4907931;29;20425;-82
2023/05/01 05:45:35;;;;;;;;;;;;;;;9.31;57.07;101334.06;4909850;29;20052;-82
2023/05/01 05:48:01;;;;;;;6.00;4.25;;;;;;;9.42;56.68;101322.91;4909565;29;19927;-80
2023/05/01 05:50:26;;;;;;;8.52;4.47;;;;;;;9.32;56.45;101331.19;4909234;29;20481;-80
2023/05/01 05:52:51;;;;;;;;;;;;;;;9.35;56.69;101327.31;4900136;29;20044;-81
2023/05/01 05:55:17;;;;;;;7.03;4.37;;;;;;;9.63;55.49;101319.56;4907469;29;19919;-82
2023/05/01 05:57:42;;;;;;;8.55;4.65;;;;;;;9.65;56.45;101322.06;4908559;29;20059;-79
2023/05/01 06:00:09;;;;;;;;;;;;;;;9.75;55.54;101327.22;4911531;29;20155;-80
2023/05/01 06:02:35;;;;;;;6.33;4.33;;;;;;;9.80;55.24;101322.97;4909259;29;19922;-80
2023/05/01 06:05:00;;;;;;;9.75;4.28;;;;;;;9.83;55.65;101321.75;4909845;29;20044;-80
2023/05/01 06:07:27;;;;;;;7.55;4.28;;;;;;;9.85;56.23;101322.41;4908492;29;20075;-80
2023/05/01 06:09:52;;;;;;;10.70;4.70;;;;;;;10.01;55.51;101326.84;4899084;29;20044;-79
2023/05/01 06:12:17;;;;;;;9.18;4.60;;;;;;;10.16;55.22;101316.94;4915799;29;20099;-79
2023/05/01 06:14:43;;;;;;;8.38;4.50;;;;;;;10.45;54.94;101320.72;4918180;29;20044;-80
2023/05/01 06:17:08;;;;;;;8.32;4.50;;;;;;;10.55;54.24;101325.00;4900575;29;20055;-80
2023/05/01 06:19:34;;;;;;;9.45;4.25;;;;;;;11.04;53.18;101308.25;4880116;29;20041;-80
2023/05/01 06:22:02;;;;;;;7.50;4.70;;;;;;;11.27;52.57;101318.03;4900616;29;20504;-81
2023/05/01 06:24:34;;;;;;;8.00;4.63;;;;;;;11.59;51.71;101317.75;4901650;29;21335;-79
2023/05/01 06:36:23;;;;;;;10.07;4.60;;;;;;;12.43;50.86;101316.19;4949466;23;20044;-79
2023/05/01 06:38:54;;;;;;;8.27;4.68;;;;;;;12.60;50.19;101305.91;4839956;29;20071;-80
2023/05/01 06:48:16;;;;;;;7.07;4.50;;;;;;;13.17;49.37;101321.94;4792127;29;20061;-79
2023/05/01 06:51:15;;;;;;;7.55;4.30;;;;;;;13.29;49.37;101319.47;4827819;29;20410;-79
2023/05/01 06:53:40;;;;;;;9.23;4.55;;;;;;;12.99;49.88;101327.91;4859471;29;20064;-79
2023/05/01 06:56:07;;;;;;;7.07;4.57;;;;;;;13.32;50.23;101321.78;4858799;29;20049;-79
2023/05/01 06:58:35;;;;;;;5.97;4.65;;;;;;;13.63;49.64;101325.81;4893761;29;20283;-79
2023/05/01 07:01:03;;;;;;;6.70;4.93;;;;;;;13.47;48.71;101322.47;4864486;29;22519;-79
2023/05/01 07:03:35;;;;;;;8.85;4.53;;;;;;;13.72;49.34;101324.59;4875545;29;20060;-80
2023/05/01 07:06:05;;;;;;;5.85;4.10;;;;;;;13.72;48.46;101332.72;4861377;29;20090;-79
2023/05/01 07:08:30;;;;;;;6.75;4.30;;;;;;;13.69;49.11;101321.47;4886000;29;20072;-79
2023/05/01 07:10:56;;;;;;;6.65;4.25;;;;;;;14.19;48.23;101324.63;4866911;29;20041;-79
2023/05/01 07:13:21;;;;;;;5.90;4.40;;;;;;;13.86;47.75;101317.31;4835228;29;20488;-79
2023/05/01 07:18:34;;;;;;;;;;;;;;;14.25;47.97;101322.94;4856008;29;20085;-79
2023/05/01 07:21:01;;;;;;;6.25;4.20;;;;;;;14.84;46.81;101314.91;4882952;29;19923;-79
2023/05/01 07:23:34;;;;;;;9.73;4.28;;;;;;;15.15;45.65;101318.75;4879568;29;20040;-77
2023/05/01 07:25:59;;;;;;;7.55;4.53;;;;;;;15.54;44.73;101314.13;4890049;29;20076;-78
2023/05/01 07:28:25;;;;;;;10.35;4.80;;;;;;;15.59;45.27;101316.22;4903244;29;20397;-80
2023/05/01 07:30:52;;;;;;;6.30;4.07;;;;;;;15.70;44.88;101322.81;4873357;29;20448;-79
2023/05/01 07:33:26;;;;;;;7.70;4.45;;;;;;;15.87;43.81;101317.69;4863104;29;20094;-80
2023/05/01 07:35:56;;;;;;;8.43;4.40;;;;;;;16.29;43.30;101306.25;4882125;29;20052;-80
2023/05/01 07:38:22;;;;;;;7.53;5.07;;;;;;;16.01;44.02;101308.38;4859072;29;20075;-80
2023/05/01 07:40:47;;;;;;;8.15;5.00;;;;;;;15.99;43.69;101315.09;4891087;29;20539;-80
2023/05/01 07:43:13;;;;;;;8.45;4.10;;;;;;;16.50;43.25;101311.25;4885929;29;20468;-80
2023/05/01 07:45:38;;;;;;;6.10;4.50;;;;;;;16.49;43.27;101309.59;4906345;29;20195;-79
2023/05/01 07:48:04;;;;;;;7.25;4.30;;;;;;;16.55;42.99;101313.31;4894160;29;20408;-79
2023/05/01 07:50:35;;;;;;;7.78;4.63;;;;;;;17.80;40.51;101306.66;4879502;29;20132;-79
2023/05/01 07:53:03;;;;;;;8.50;4.32;;;;;;;18.55;38.46;101309.78;4886374;29;20059;-79
2023/05/01 07:55:37;;;;;;;7.38;4.18;;;;;;;18.40;39.37;101310.25;4898244;29;20075;-79
2023/05/01 07:58:03;;;;;;;7.63;4.60;;;;;;;18.22;39.78;101308.50;4880948;29;20066;-79
2023/05/01 08:00:28;;;;;;;8.85;4.80;;;;;;;19.09;38.09;101315.00;4857708;29;20067;-78
2023/05/01 08:02:56;;;;;;;8.02;5.18;;;;;;;18.55;38.51;101309.78;4870293;29;20513;-79
2023/05/01 08:05:53;;;;;;;7.97;4.32;;;;;;;19.77;37.23;101304.19;4880553;29;20048;-78
2023/05/01 08:08:20;;;;;;;6.43;4.70;;;;;;;20.18;35.81;101306.81;4899720;29;20151;-79
2023/05/01 08:10:55;;;;;;;5.32;3.95;;;;;;;21.19;35.14;101306.72;4876012;29;20132;-79
2023/05/01 08:13:20;;;;;;;7.30;4.85;;;;;;;21.92;32.46;101305.50;4892927;29;20204;-79
2023/05/01 08:15:54;;;;;;;8.93;4.45;;;;;;;21.38;33.87;101300.88;4873203;29;20039;-79
2023/05/01 08:18:26;;;;;;;9.25;4.47;;;;;;;22.52;32.45;101302.59;4880431;29;20173;-79
2023/05/01 08:20:51;;;;;;;7.70;4.45;;;;;;;23.17;30.30;101308.59;4895810;29;20041;-79
2023/05/01 08:23:16;;;;;;;5.80;4.10;;;;;;;23.57;31.20;101306.22;4893813;29;20382;-79
2023/05/01 08:32:56;;;;;;;5.10;3.83;;;;;;;23.65;30.09;101302.09;4899355;29;20056;-80
2023/05/01 08:35:22;;;;;;;6.00;4.05;;;;;;;25.08;29.19;101310.31;4890373;29;20048;-79
2023/05/01 08:37:57;;;;;;;7.50;4.22;;;;;;;25.81;28.61;101301.53;4836237;29;20055;-79
2023/05/01 08:40:34;;;;;;;6.95;4.65;;;;;;;23.88;30.37;101310.88;4889165;29;20483;-79
2023/05/01 08:43:07;;;;;;;6.65;4.40;;;;;;;23.71;30.94;101312.00;4893558;29;20032;-80
2023/05/01 08:45:36;;;;;;;7.65;4.47;;;;;;;23.40;31.02;101306.47;4850594;29;20059;-80
2023/05/01 08:48:05;;;;;;;6.65;4.47;;;;;;;22.45;33.00;101296.53;4869450;29;20063;-80
2023/05/01 08:50:32;;;;;;;6.85;4.57;;;;;;;22.82;33.25;101301.91;4826535;29;20040;-80
2023/05/01 08:52:58;;;;;;;6.40;4.70;;;;;;;23.23;32.13;101294.91;4843006;29;20056;-80
2023/05/01 08:55:23;;;;;;;5.35;4.57;;;;;;;21.78;34.09;101296.88;4871866;29;20125;-80
2023/05/01 08:57:49;;;;;;;8.13;4.97;;;;;;;21.92;34.91;101295.34;4873440;29;20095;-79
2023/05/01 09:00:18;;;;;;;6.10;4.50;;;;;;;22.92;32.84;101300.31;4865677;29;20069;-79
2023/05/01 09:02:45;;;;;;;6.65;4.80;;;;;;;21.69;35.37;101299.28;4890665;29;20099;-80
2023/05/01 09:05:11;;;;;;;6.30;4.80;;;;;;;21.24;36.16;101290.34;4897728;29;20443;-81
2023/05/01 09:07:36;;;;;;;7.47;4.53;;;;;;;22.05;34.49;101288.59;4880905;29;20048;-79
2023/05/01 09:10:02;;;;;;;7.30;4.80;;;;;;;21.32;35.40;101289.91;4867439;29;20052;-80
2023/05/01 09:12:27;;;;;;;6.00;4.82;;;;;;;20.93;36.26;101298.22;4874667;29;20048;-80
2023/05/01 09:14:54;;;;;;;7.57;5.35;;;;;;;20.78;36.38;101296.13;4882216;29;20537;-79
2023/05/01 09:17:20;;;;;;;7.82;5.30;;;;;;;20.29;37.56;101296.84;4908111;29;20131;-80
2023/05/01 09:19:46;;;;;;;7.68;5.30;;;;;;;19.49;39.24;101295.00;4891890;29;20565;-79
2023/05/01 09:22:11;;;;;;;5.68;4.65;;;;;;;19.83;39.19;101297.75;4880334;29;20502;-79
2023/05/01 09:24:38;;;;;;;5.55;4.95;;;;;;;20.24;38.20;101289.38;4860559;29;20053;-79
2023/05/01 09:27:04;;;;;;;7.63;5.60;;;;;;;20.10;38.15;101285.34;4855507;29;20146;-79
2023/05/01 09:29:40;;;;;;;7.53;5.45;;;;;;;18.64;41.05;101289.22;4879565;29;20052;-79
2023/05/01 09:32:22;;;;;;;7.15;5.20;;;;;;;18.17;41.78;101285.50;4903026;29;20044;-79
2023/05/01 09:34:48;;;;;;;6.45;5.07;;;;;;;18.37;42.17;101283.47;4866208;29;20055;-79
2023/05/01 09:37:29;;;;;;;7.32;5.30;;;;;;;18.29;42.44;101279.22;4884034;29;20444;-79
2023/05/01 09:40:07;;;;;;;8.77;5.55;;;;;;;18.37;41.47;101278.88;4892308;29;20052;-79
2023/05/01 09:42:34;;;;;;;6.60;4.97;;;;;;;19.96;38.80;101284.84;4906596;29;20132;-79
2023/05/01 09:45:00;;;;;;;7.13;5.25;;;;;;;21.14;36.16;101288.31;4898696;29;20055;-79
2023/05/01 09:47:27;;;;;;;6.93;4.97;;;;;;;21.14;36.30;101282.03;4901774;29;20048;-79
2023/05/01 09:49:54;;;;;;;9.82;5.28;;;;;;;21.63;35.07;101281.13;4908658;29;20508;-80
2023/05/01 09:52:19;;;;;;;5.60;4.97;;;;;;;22.44;33.35;101276.50;4909872;29;20044;-80
2023/05/01 09:55:14;;;;;;;6.57;4.85;;;;;;;21.32;34.63;101270.72;4881222;29;20100;-80
2023/05/01 09:57:48;;;;;;;6.20;4.10;;;;;;;22.84;32.71;101276.94;4870399;29;20048;-79
2023/05/01 10:00:14;;;;;;;6.38;5.30;;;;;;;21.32;34.67;101269.88;4888387;29;20048;-80
2023/05/01 10:02:40;;;;;;;6.05;5.32;;;;;;;22.51;33.52;101279.00;4891562;29;20040;-80
2023/05/01 10:05:07;;;;;;;7.15;4.85;;;;;;;23.62;32.45;101270.50;4903108;29;20060;-80
2023/05/01 10:08:01;;;;;;;5.72;4.97;;;;;;;25.48;29.81;101273.72;4898195;29;20052;-80
2023/05/01 10:10:32;;;;;;;10.02;5.22;;;;;;;26.67;28.34;101267.78;4895892;29;20350;-81
2023/05/01 10:13:15;;;;;;;7.22;4.78;;;;;;;27.96;26.11;101276.88;4874091;29;20041;-81
2023/05/01 10:15:40;;;;;;;8.88;4.88;;;;;;;27.09;25.80;101271.66;4866126;29;20502;-81
2023/05/01 10:18:08;;;;;;;6.35;4.30;;;;;;;26.46;26.11;101272.75;4868907;29;20517;-80
2023/05/01 10:20:34;;;;;;;4.68;3.97;;;;;;;26.44;26.71;101275.81;4866490;29;20427;-80
2023/05/01 10:23:09;;;;;;;6.10;4.47;;;;;;;26.72;27.03;101270.47;4884831;29;20077;-82
2023/05/01 10:25:38;;;;;;;5.38;3.95;;;;;;;27.01;26.31;101275.06;4868028;29;20045;-80
2023/05/01 10:28:04;;;;;;;5.03;3.72;;;;;;;26.08;27.18;101272.59;4857284;29;20628;-81
2023/05/01 10:30:30;;;;;;;5.72;3.78;;;;;;;26.97;26.23;101270.44;4851513;29;20060;-81
2023/05/01 10:32:55;;;;;;;4.70;3.90;;;;;;;26.60;25.67;101265.38;4878363;29;20072;-80
2023/05/01 10:35:33;;;;;;;6.03;3.80;;;;;;;27.04;25.36;101268.16;4889679;29;20106;-82
2023/05/01 10:38:05;;;;;;;6.55;3.70;;;;;;;27.28;25.97;101264.44;4838000;29;20068;-81
2023/05/01 10:40:40;;;;;;;4.43;3.83;;;;;;;26.60;25.79;101264.56;4894021;29;20547;-80
2023/05/01 10:43:19;;;;;;;5.05;3.75;;;;;;;26.59;26.28;101257.41;4896213;29;20048;-80
2023/05/01 10:45:45;;;;;;;4.78;4.03;;;;;;;27.81;25.49;101269.66;4896918;29;20377;-80
2023/05/01 10:48:11;;;;;;;5.40;3.47;;;;;;;27.73;24.59;101264.84;4889622;29;20213;-80
2023/05/01 10:51:19;;;;;;;5.35;4.13;;;;;;;26.93;26.01;101267.47;4890315;29;20592;-81
2023/05/01 10:53:45;;;;;;;4.40;3.70;;;;;;;27.97;24.85;101267.44;4849085;29;20065;-81
2023/05/01 10:56:43;;;;;;;4.95;3.97;;;;;;;29.55;23.41;101267.41;4819512;29;20041;-81
2023/05/01 10:59:08;;;;;;;4.60;4.20;;;;;;;28.73;24.03;101262.63;4879368;29;20079;-80
2023/05/01 11:01:58;;;;;;;5.55;4.07;;;;;;;28.54;24.18;101262.75;4864828;29;20052;-81
2023/05/01 11:05:01;;;;;;;4.43;4.00;;;;;;;28.60;24.50;101254.03;4880804;29;20068;-81
2023/05/01 11:07:39;;;;;;;6.10;4.13;;;;;;;27.76;25.01;101244.88;4876894;29;20465;-80
2023/05/01 11:10:05;;;;;;;4.55;4.10;;;;;;;29.07;23.03;101246.66;4879681;29;20413;-80
2023/05/01 11:13:01;;;;;;;4.07;3.50;;;;;;;29.30;23.59;101244.72;4837297;29;20754;-80
2023/05/01 11:15:30;;;;;;;4.72;4.30;;;;;;;29.24;23.52;101244.00;4845836;29;20048;-81
2023/05/01 11:18:10;;;;;;;5.13;4.10;;;;;;;29.67;23.25;101231.59;4901508;29;20060;-81
2023/05/01 11:24:02;;;;;;;5.97;4.45;;;;;;;27.76;25.40;101241.28;4817650;29;20057;-81
2023/05/01 11:29:53;;;;;;;7.63;4.15;;;;;;;27.79;24.95;101226.84;4867586;29;20047;-81
2023/05/01 11:32:22;;;;;;;5.97;4.35;;;;;;;28.53;24.70;101231.47;4852161;29;20084;-81
2023/05/01 11:34:53;;;;;;;4.22;3.83;;;;;;;28.93;24.22;101230.91;4890240;29;20046;-81
2023/05/01 11:37:19;;;;;;;4.70;4.18;;;;;;;28.87;24.06;101226.59;4870857;29;20526;-81
2023/05/01 11:40:31;;;;;;;4.93;4.22;;;;;;;28.76;24.61;101223.25;4871143;29;20123;-81
2023/05/01 11:43:08;;;;;;;4.93;4.15;;;;;;;28.59;24.48;101219.16;4903216;29;20084;-81
2023/05/01 11:46:05;;;;;;;4.40;4.00;;;;;;;30.05;23.21;101219.22;4881653;29;20241;-82
2023/05/01 11:48:38;;;;;;;5.40;4.20;;;;;;;30.63;22.72;101217.25;4841311;29;20068;-81
2023/05/01 11:51:11;;;;;;;6.38;4.30;;;;;;;30.30;22.51;101217.66;4867418;29;20060;-82
2023/05/01 11:54:02;;;;;;;4.50;4.10;;;;;;;29.46;23.23;101209.97;4874620;29;20040;-81
2023/05/01 11:56:36;;;;;;;4.10;3.70;;;;;;;28.53;24.24;101217.63;4871894;29;20138;-81
2023/05/01 12:02:24;;;;;;;4.13;3.72;;;;;;;28.04;25.00;101213.66;4890990;29;20055;-81
2023/05/01 12:04:55;;;;;;;4.10;3.70;;;;;;;26.83;26.21;101206.84;4900809;29;20501;-82
2023/05/01 12:07:29;;;;;;;5.63;3.63;;;;;;;26.01;27.52;101209.47;4874128;29;20531;-82
2023/05/01 12:10:01;;;;;;;5.95;4.18;;;;;;;25.23;28.67;101207.47;4902358;29;20087;-82
2023/05/01 12:12:32;;;;;;;4.95;4.03;;;;;;;25.54;27.67;101212.72;4859537;29;20060;-81
2023/05/01 12:18:22;;;;;;;6.18;3.90;;;;;;;26.21;27.43;101207.63;4911073;29;20487;-82
2023/05/01 12:21:01;;;;;;;5.35;4.30;;;;;;;26.86;26.92;101204.31;4854312;29;20052;-82
2023/05/01 12:23:37;;;;;;;3.75;3.35;;;;;;;27.95;25.62;101203.28;4891799;29;20047;-82
2023/05/01 12:26:16;;;;;;;5.85;3.75;;;;;;;29.07;23.88;101208.69;4901403;29;20178;-82
2023/05/01 12:29:01;;;;;;;9.68;3.95;;;;;;;29.54;22.62;101197.28;4891845;29;20437;-82
2023/05/01 12:31:26;;;;;;;4.32;3.20;;;;;;;29.70;22.48;101208.75;4878280;29;20140;-82